Last 24 Hours

Coyote Canyon

10 Minute Data | America/Los_Angeles
as of 9/5/26 7:14 AM PDT
Date & Time Temp (°F) Dew Pt (°F) RH (%) Wind Spd (mph) Wind Dir (°) Wind Gust (mph) Wind Gst Dir (°) Daily Max Temp (°F) Daily Min Temp (°F)
9/5/26 - 0710 64.3 22.8 20 2.5 NNE | 16 4.8 N | 3 66.6 63.4
9/5/26 - 0700 64.9 22.3 20 3.6 NNE | 22 6.1 NE | 42 66.6 63.4
9/5/26 - 0650 64.2 23.0 21 4.6 NNE | 28 7.1 NNE | 19 66.6 63.4
9/5/26 - 0640 64.5 23.6 21 3.7 NNW | 339 5.9 NW | 315 66.6 63.5
9/5/26 - 0630 64.9 22.6 20 5.6 WNW | 285 9.0 W | 262 66.6 63.6
9/5/26 - 0620 64.0 22.9 21 4.3 WNW | 283 8.4 W | 269 66.6 63.6
9/5/26 - 0610 64.2 23.4 21 4.5 WNW | 287 7.6 WNW | 286 66.6 63.6
9/5/26 - 0600 64.8 23.5 21 7.7 WSW | 254 11.0 WSW | 241 66.6 63.6
9/5/26 - 0550 64.6 23.3 21 7.1 WSW | 245 11.2 SW | 216 66.6 63.6
9/5/26 - 0540 64.7 23.1 20 8.6 SW | 223 12.0 SW | 236 66.6 63.6
9/5/26 - 0530 64.4 23.3 21 5.6 WSW | 242 11.2 SW | 218 66.6 63.6
9/5/26 - 0520 64.2 23.4 21 5.0 WSW | 256 8.6 W | 267 66.6 63.6
9/5/26 - 0510 64.5 23.3 21 5.2 W | 262 9.4 SSW | 207 66.6 63.6
9/5/26 - 0500 65.0 22.6 20 6.4 WSW | 251 11.2 WSW | 238 66.6 63.6
9/5/26 - 0450 65.4 22.7 19 6.3 WSW | 258 13.0 WSW | 256 66.6 63.6
9/5/26 - 0440 65.1 23.3 20 6.5 WSW | 251 13.1 SW | 227 66.6 63.6
9/5/26 - 0430 63.9 25.3 23 3.3 WNW | 289 6.9 W | 273 66.6 63.6
9/5/26 - 0420 64.1 27.2 25 3.8 NW | 316 5.0 NNW | 336 66.6 63.9
9/5/26 - 0410 64.8 28.3 25 3.1 NNW | 332 5.3 NW | 314 66.6 64.0
9/5/26 - 0400 64.9 29.1 26 3.5 NW | 309 5.7 NW | 306 66.6 64.0
9/5/26 - 0350 64.8 29.2 26 4.4 NW | 306 6.3 NW | 308 66.6 64.0
9/5/26 - 0340 64.8 29.7 27 5.7 WNW | 294 7.2 WNW | 285 66.6 64.0
9/5/26 - 0330 64.9 30.0 27 6.3 WNW | 292 8.1 WNW | 284 66.6 64.0
9/5/26 - 0320 65.3 30.2 27 6.8 WNW | 283 8.6 WNW | 284 66.6 64.0
9/5/26 - 0310 65.2 31.4 28 6.9 WNW | 292 9.5 WNW | 292 66.6 64.0
9/5/26 - 0300 64.8 32.0 29 6.3 NW | 306 8.4 NW | 306 66.6 64.0
9/5/26 - 0250 64.4 32.3 30 7.4 NW | 311 9.3 WNW | 303 66.6 64.0
9/5/26 - 0240 64.7 32.3 30 7.6 NW | 313 9.6 NW | 307 66.6 64.1
9/5/26 - 0230 66.0 32.2 28 6.1 NW | 310 8.8 NW | 315 66.6 65.0
9/5/26 - 0220 66.3 32.3 28 5.9 NW | 311 7.1 NW | 321 66.5 65.0
9/5/26 - 0210 66.3 32.7 28 5.5 NNW | 335 7.7 NW | 312 66.5 65.0
9/5/26 - 0200 66.0 33.3 30 4.9 NNW | 330 7.7 NW | 318 66.3 65.0
9/5/26 - 0150 66.2 33.6 30 3.8 NW | 326 6.6 NW | 305 66.3 65.0
9/5/26 - 0140 65.6 33.6 30 4.8 NW | 322 8.6 NW | 306 66.2 65.0
9/5/26 - 0130 65.8 33.7 30 5.6 NW | 319 8.3 NNW | 336 66.2 65.0
9/5/26 - 0120 65.8 34.0 31 6.9 NW | 323 11.0 NW | 318 66.2 65.0
9/5/26 - 0110 65.3 34.3 31 6.9 NW | 312 9.4 NNW | 336 65.8 65.0
9/5/26 - 0100 65.4 34.1 31 8.1 NW | 319 10.8 NW | 322 83.2 56.1
9/5/26 - 0050 65.0 34.1 32 8.2 NW | 320 11.0 NW | 324 83.2 56.1
9/5/26 - 0040 65.0 34.7 32 6.8 NW | 309 9.9 NW | 323 83.2 56.1
9/5/26 - 0030 65.6 34.3 31 7.1 W | 277 13.2 W | 272 83.2 56.1
9/5/26 - 0020 65.6 33.6 30 7.4 WSW | 258 14.2 SW | 234 83.2 56.1
9/5/26 - 0010 65.3 34.9 32 4.8 W | 265 14.1 WSW | 247 83.2 56.1
9/5/26 - 0000 66.0 34.5 31 6.4 WSW | 257 10.7 WSW | 243 83.2 56.1
9/4/26 - 2350 66.3 34.2 30 7.2 WSW | 256 11.8 WSW | 247 83.2 56.1
9/4/26 - 2340 65.7 35.3 33 7.2 W | 273 11.9 W | 263 83.2 56.1
9/4/26 - 2330 64.0 40.1 41 6.2 WNW | 292 9.8 WNW | 292 83.2 56.1
9/4/26 - 2320 64.2 39.7 41 6.5 WNW | 288 11.6 W | 270 83.2 56.1
9/4/26 - 2310 63.0 40.8 44 6.7 WNW | 290 9.6 WNW | 289 83.2 56.1
9/4/26 - 2300 62.7 41.6 46 8.2 WNW | 292 9.9 WNW | 300 83.2 56.1
9/4/26 - 2250 62.2 41.6 47 9.8 WNW | 296 11.1 WNW | 296 83.2 56.1
9/4/26 - 2240 63.3 41.6 45 11.2 WNW | 290 12.6 WNW | 288 83.2 56.1
9/4/26 - 2230 63.6 41.8 45 12.0 WNW | 289 13.7 WNW | 291 83.2 56.1
9/4/26 - 2220 64.3 42.1 44 11.6 WNW | 288 12.9 WNW | 286 83.2 56.1
9/4/26 - 2210 65.1 42.2 43 11.8 WNW | 294 13.7 WNW | 295 83.2 56.1
9/4/26 - 2200 65.2 42.2 43 11.4 WNW | 302 13.2 WNW | 299 83.2 56.1
9/4/26 - 2150 65.4 42.3 43 11.4 NW | 308 13.2 NW | 310 83.2 56.1
9/4/26 - 2140 65.6 42.4 43 11.4 NW | 309 13.4 NW | 318 83.2 56.1
9/4/26 - 2130 65.6 42.5 43 11.7 NW | 312 13.6 NW | 308 83.2 56.1
9/4/26 - 2120 65.6 42.5 43 11.0 NW | 310 12.8 NW | 311 83.2 56.1
9/4/26 - 2110 65.3 42.3 43 11.2 NW | 308 13.8 NW | 307 83.2 56.1
9/4/26 - 2100 65.3 42.2 43 9.8 NW | 306 13.3 NW | 313 83.2 56.1
9/4/26 - 2050 65.6 42.3 43 9.0 WNW | 301 11.0 WNW | 294 83.2 56.1
9/4/26 - 2040 66.1 42.3 42 10.0 NW | 309 12.5 NW | 312 83.2 56.1
9/4/26 - 2030 66.1 42.3 42 11.2 NW | 317 13.0 NW | 309 83.2 56.1
9/4/26 - 2020 66.1 42.1 42 10.2 NW | 315 12.6 NW | 317 83.2 56.1
9/4/26 - 2010 66.3 41.8 41 10.7 NW | 319 13.8 NW | 319 83.2 56.1
9/4/26 - 2000 66.5 41.8 40 9.2 NW | 319 11.8 NW | 312 83.2 56.1
9/4/26 - 1950 66.5 41.8 41 7.4 NW | 305 9.3 NW | 315 83.2 56.1
9/4/26 - 1940 67.3 42.1 40 8.9 WNW | 292 12.0 WNW | 287 83.2 56.1
9/4/26 - 1930 68.1 42.4 39 10.0 WNW | 294 13.0 WNW | 294 83.2 56.1
9/4/26 - 1920 69.2 41.9 37 9.7 WNW | 286 14.0 WNW | 299 83.2 56.1
9/4/26 - 1910 70.0 40.9 35 11.8 W | 269 17.0 W | 264 83.2 56.1
9/4/26 - 1900 70.6 40.5 33 12.1 W | 276 17.5 WNW | 287 83.2 56.1
9/4/26 - 1850 71.1 40.9 33 11.1 W | 278 15.2 WNW | 285 83.2 56.1
9/4/26 - 1840 71.9 40.0 32 13.3 W | 273 19.2 W | 269 83.2 56.1
9/4/26 - 1830 72.6 39.1 30 13.8 W | 271 18.8 W | 276 83.2 56.1
9/4/26 - 1820 73.4 40.9 31 14.0 W | 270 19.4 W | 263 83.2 56.1
9/4/26 - 1810 73.7 43.9 34 14.4 W | 273 19.6 W | 273 83.2 56.1
9/4/26 - 1800 74.2 45.2 35 13.4 WNW | 287 19.4 WNW | 300 83.2 56.1
9/4/26 - 1750 74.1 45.9 37 15.4 WNW | 288 21.3 W | 279 83.2 56.1
9/4/26 - 1740 74.4 46.9 38 16.2 WNW | 290 20.7 WNW | 282 83.2 56.1
9/4/26 - 1730 75.2 47.6 38 15.5 W | 277 22.4 W | 273 83.2 56.1
9/4/26 - 1720 75.6 47.4 37 13.6 WNW | 288 22.6 WNW | 284 83.2 56.1
9/4/26 - 1710 75.9 47.3 36 14.8 WNW | 286 22.4 WNW | 299 83.2 56.1
9/4/26 - 1700 76.7 46.6 34 12.5 WNW | 286 20.2 W | 273 83.2 56.1
9/4/26 - 1650 76.2 46.3 35 13.7 WNW | 290 21.9 W | 276 83.2 56.1
9/4/26 - 1640 76.7 46.4 34 14.5 WNW | 285 21.4 W | 275 83.2 56.1
9/4/26 - 1630 77.3 46.0 33 13.6 WNW | 292 22.9 WNW | 291 83.2 56.1
9/4/26 - 1620 76.9 45.7 33 13.6 WNW | 300 21.7 WNW | 290 83.2 56.1
9/4/26 - 1610 77.1 45.2 32 14.4 WNW | 294 23.2 NW | 308 83.2 56.1
9/4/26 - 1600 77.2 44.8 32 14.7 WNW | 297 22.4 WNW | 298 83.2 56.1
9/4/26 - 1550 77.5 44.7 31 13.7 W | 276 22.7 W | 261 83.2 56.1
9/4/26 - 1540 78.1 44.4 30 13.4 WNW | 283 25.1 WNW | 284 83.2 56.1
9/4/26 - 1530 78.4 44.2 30 13.0 W | 278 21.6 W | 277 83.2 56.1
9/4/26 - 1520 77.8 43.8 30 15.5 WNW | 286 24.6 WNW | 294 83.2 56.1
9/4/26 - 1510 78.3 43.6 29 14.4 WNW | 284 26.4 WNW | 287 83.2 56.1
9/4/26 - 1500 79.1 43.4 28 13.0 W | 275 20.0 WNW | 299 83.2 56.1
9/4/26 - 1450 79.1 42.9 28 10.5 W | 267 19.4 WSW | 247 83.2 56.1
9/4/26 - 1440 79.3 40.3 25 15.2 SW | 233 27.3 WSW | 247 83.2 56.1
9/4/26 - 1430 80.6 39.8 23 13.1 SW | 225 23.4 SSW | 203 83.2 56.1
9/4/26 - 1420 81.9 39.5 22 11.3 SW | 228 20.9 SSE | 155 83.2 56.1
9/4/26 - 1410 80.3 37.8 22 14.9 SW | 218 24.9 SW | 225 82.5 56.1
9/4/26 - 1400 79.8 36.9 21 11.9 SW | 221 22.7 SW | 222 82.5 56.1
9/4/26 - 1350 80.8 35.4 20 11.5 S | 172 20.5 SSE | 160 82.5 56.1
9/4/26 - 1340 79.8 34.9 20 18.5 S | 184 27.3 S | 171 82.5 56.1
9/4/26 - 1330 79.6 34.7 20 16.5 SSW | 192 25.8 SW | 227 82.5 56.1
9/4/26 - 1320 78.8 34.0 20 17.6 SSW | 193 25.4 SSW | 196 82.5 56.1
9/4/26 - 1310 79.9 33.4 19 15.5 S | 182 23.4 SW | 215 82.5 56.1
9/4/26 - 1300 79.9 33.8 19 11.0 SSW | 210 22.6 SSW | 210 82.5 56.1
9/4/26 - 1250 80.4 37.2 21 5.6 W | 272 14.3 W | 259 82.5 56.1
9/4/26 - 1240 79.0 35.6 21 6.6 WSW | 243 15.8 SSW | 208 80.3 56.1
9/4/26 - 1230 79.5 34.0 19 7.0 SSW | 206 15.9 SW | 218 80.3 56.1
9/4/26 - 1220 78.4 33.5 20 6.8 WSW | 239 15.7 WSW | 237 79.4 56.1
9/4/26 - 1210 78.0 34.4 21 10.1 W | 275 17.3 WSW | 257 79.2 56.1
9/4/26 - 1200 77.5 34.7 21 10.4 WNW | 285 16.7 W | 268 78.2 56.1
9/4/26 - 1150 76.9 34.2 21 7.9 WNW | 284 16.9 WNW | 287 77.8 56.1
9/4/26 - 1140 76.9 33.5 21 9.4 WNW | 282 16.4 WNW | 294 77.5 56.1
9/4/26 - 1130 76.3 32.9 21 10.9 W | 277 18.9 WNW | 294 77.5 56.1
9/4/26 - 1120 76.8 32.0 19 11.1 W | 268 18.0 NW | 307 77.5 56.1
9/4/26 - 1110 75.8 30.9 19 9.3 WNW | 283 17.4 WNW | 282 76.7 56.1
9/4/26 - 1100 76.2 30.8 19 11.8 W | 280 20.5 W | 265 76.7 56.1
9/4/26 - 1050 74.8 31.9 21 8.5 WNW | 298 17.0 NW | 312 75.6 56.1
9/4/26 - 1040 74.2 32.2 21 9.2 WNW | 289 18.9 WNW | 288 75.5 56.1
9/4/26 - 1030 74.4 32.8 22 9.8 WNW | 300 21.3 WNW | 289 75.5 56.1
9/4/26 - 1020 73.6 33.4 23 8.6 NW | 306 15.0 NW | 304 74.2 56.1
9/4/26 - 1010 73.0 33.8 24 8.8 WNW | 301 13.5 NW | 317 73.5 56.1
9/4/26 - 1000 72.6 33.8 24 7.8 WNW | 290 17.5 WNW | 282 73.0 56.1
9/4/26 - 0950 72.3 33.8 24 8.5 WNW | 286 14.0 WNW | 282 72.7 56.1
9/4/26 - 0940 71.7 32.6 24 9.2 WNW | 286 15.2 WNW | 294 72.2 56.1
9/4/26 - 0930 71.0 31.6 23 10.6 WNW | 292 15.3 WNW | 296 71.6 56.1
9/4/26 - 0920 70.5 31.6 24 10.7 WNW | 292 14.4 WNW | 303 71.1 56.1
9/4/26 - 0910 69.6 27.7 21 11.2 WNW | 296 15.2 WNW | 296 70.1 56.1
9/4/26 - 0900 69.0 21.0 16 10.6 WNW | 298 15.0 WNW | 294 69.4 56.1
9/4/26 - 0850 68.7 17.7 14 11.3 WNW | 293 15.3 WNW | 289 68.9 56.1
9/4/26 - 0840 68.2 17.1 14 10.9 WNW | 296 14.4 WNW | 298 68.8 56.1
9/4/26 - 0830 67.4 15.4 13 12.1 WNW | 298 15.2 WNW | 294 67.6 56.1
9/4/26 - 0820 66.4 18.3 16 12.6 WNW | 298 15.4 WNW | 295 66.9 56.1
9/4/26 - 0810 65.4 20.1 18 11.8 WNW | 302 14.9 WNW | 302 66.0 56.1
9/4/26 - 0800 64.6 19.4 17 12.1 WNW | 303 15.6 NW | 311 64.9 56.1
9/4/26 - 0750 64.8 14.2 14 12.6 NW | 307 15.8 NW | 311 64.9 56.1
9/4/26 - 0740 64.4 12.8 13 13.9 NW | 313 17.0 NW | 316 64.6 56.1
9/4/26 - 0730 63.9 12.3 13 13.8 NW | 316 16.8 NW | 319 64.2 56.1
9/4/26 - 0720 63.3 14.2 15 13.4 NW | 318 16.3 NW | 320 63.5 56.1
9/4/26 - 0710 62.8 16.0 16 13.0 NW | 314 15.2 NW | 311 63.0 56.1
Max 81.9 47.6 47 18.5 - 27.3 - 83.2 65.0
Avg 69.9 34.3 28 9.7 - 14.8 - - -
Min 62.2 12.3 13 2.5 - 4.8 - 63.0 56.1